Time;durP1;ratioP1;P1;durP2;ratioP2;P2;SDS_P1;SDS_P2;PMS_P1;PMS_P2;Temp;Humidity;BMP_temperature;BMP_pressure;BME280_temperature;BME280_humidity;BME280_pressure;Samples;Min_cycle;Max_cycle;Signal;HPM_P1;HPM_P2
2024/02/27 00:01:50;;;;;;;;;19.50;18.75;;;;;14.02;84.10;100871.78;146611;599;46021;-68
2024/02/27 00:04:46;;;;;;;;;16.75;14.50;;;;;14.00;84.16;100869.94;146606;582;46012;-69
2024/02/27 00:07:50;;;;;;;;;;;;;;;;;;;;;
2024/02/27 00:10:52;;;;;;;;;28.75;24.25;;;;;13.92;85.24;100872.22;146607;680;47016;-69
2024/02/27 00:13:49;;;;;;;;;22.25;21.25;;;;;13.89;85.91;100879.03;146611;631;46020;-69
2024/02/27 00:16:46;;;;;;;;;19.50;18.00;;;;;13.85;85.26;100873.72;146604;583;46012;-70
2024/02/27 00:19:43;;;;;;;;;18.25;16.25;;;;;13.84;86.22;100881.47;146608;565;46020;-70
2024/02/27 00:22:36;;;;;;;;;13.75;12.50;;;;;13.79;86.17;100881.28;146604;569;47015;-67
2024/02/27 00:25:32;;;;;;;;;23.25;20.75;;;;;13.78;85.76;100871.69;146610;578;46020;-69
2024/02/27 00:28:25;;;;;;;;;18.25;17.00;;;;;13.81;85.87;100874.44;146606;572;46016;-69
2024/02/27 00:31:35;;;;;;;;;23.75;23.00;;;;;13.85;85.86;100876.31;146610;702;46021;-71
2024/02/27 00:34:35;;;;;;;;;23.25;21.50;;;;;13.85;85.97;100878.91;146602;647;46916;-68
2024/02/27 00:37:45;;;;;;;;;20.00;17.25;;;;;13.84;85.71;100879.75;146606;593;46021;-69
2024/02/27 00:40:42;;;;;;;;;21.00;20.50;;;;;13.82;86.18;100894.44;146603;672;47012;-69
2024/02/27 00:43:25;;;;;;;;;20.25;16.25;;;;;13.75;90.12;100884.59;146711;565;46014;-69
2024/02/27 00:46:24;;;;;;;;;19.50;16.00;;;;;13.73;87.16;100894.06;146619;569;46012;-71
2024/02/27 00:49:42;;;;;;;;;18.00;15.00;;;;;13.72;85.48;100894.91;146621;600;47010;-67
2024/02/27 00:52:50;;;;;;;;;14.75;12.00;;;;;13.68;87.29;100897.34;146617;613;46012;-67
2024/02/27 00:55:51;;;;;;;;;12.00;12.00;;;;;13.61;86.60;100903.97;146623;651;46010;-66
2024/02/27 00:59:07;;;;;;;;;14.75;12.75;;;;;13.56;85.89;100900.31;146615;566;46016;-68
2024/02/27 01:02:13;;;;;;;;;16.50;14.25;;;;;13.38;86.07;100867.44;146623;596;46010;-68
2024/02/27 01:05:44;;;;;;;;;8.33;8.33;;;;;13.48;86.76;100894.75;146621;635;46014;-69
2024/02/27 01:08:39;;;;;;;;;26.75;23.75;;;;;13.39;86.79;100891.75;146631;571;46010;-70
2024/02/27 01:11:42;;;;;;;;;24.75;19.25;;;;;13.35;85.66;100892.47;146617;604;46017;-71
2024/02/27 01:14:50;;;;;;;;;20.25;19.00;;;;;13.38;86.06;100898.69;146625;629;46010;-72
2024/02/27 01:17:54;;;;;;;;;16.75;14.25;;;;;13.45;85.43;100897.22;146618;617;46913;-71
2024/02/27 01:20:58;;;;;;;;;11.50;10.50;;;;;13.36;86.13;100873.41;146623;591;46020;-70
2024/02/27 01:23:51;;;;;;;;;13.00;10.75;;;;;13.48;85.91;100896.47;146619;606;46012;-70
2024/02/27 01:26:54;;;;;;;;;14.25;13.75;;;;;13.52;86.28;100887.94;146626;582;46020;-69
2024/02/27 01:29:51;;;;;;;;;13.00;9.00;;;;;13.53;86.43;100881.94;146614;643;46016;-69
2024/02/27 01:32:56;;;;;;;;;22.50;19.75;;;;;13.51;84.67;100883.59;146630;581;46021;-72
2024/02/27 01:35:52;;;;;;;;;19.00;18.00;;;;;13.52;85.81;100890.56;146619;565;46018;-68
2024/02/27 01:38:50;;;;;;;;;17.00;14.25;;;;;13.47;87.03;100879.97;146621;652;47020;-68
2024/02/27 01:41:52;;;;;;;;;15.75;15.25;;;;;13.47;85.92;100877.34;146619;603;46016;-67
2024/02/27 01:44:57;;;;;;;;;20.50;19.75;;;;;13.47;85.46;100874.75;146622;616;46020;-68
2024/02/27 01:48:03;;;;;;;;;20.75;19.50;;;;;13.50;86.06;100879.22;146620;567;46012;-67
2024/02/27 01:50:58;;;;;;;;;15.75;15.00;;;;;13.54;85.67;100879.38;146623;581;46010;-67
2024/02/27 01:54:13;;;;;;;;;17.50;15.00;;;;;13.58;85.84;100883.00;146616;588;46016;-67
2024/02/27 01:57:06;;;;;;;;;17.25;16.50;;;;;13.64;85.82;100891.06;146623;572;46020;-69
2024/02/27 02:00:09;;;;;;;;;16.75;14.25;;;;;13.70;85.66;100893.06;146618;637;46912;-70
2024/02/27 02:03:06;;;;;;;;;16.50;15.25;;;;;13.71;85.80;100903.56;146622;571;47011;-70
2024/02/27 02:06:04;;;;;;;;;13.00;11.00;;;;;13.69;85.48;100905.19;146619;670;46012;-71
2024/02/27 02:09:17;;;;;;;;;12.25;10.75;;;;;12.20;84.22;100649.00;146623;585;46020;-70
2024/02/27 02:12:15;;;;;;;;;17.25;14.00;;;;;13.63;85.11;100897.13;146618;611;46012;-70
2024/02/27 02:15:22;;;;;;;;;12.25;12.00;;;;;13.59;84.40;100890.00;146619;572;46020;-69
2024/02/27 02:18:23;;;;;;;;;14.50;10.75;;;;;13.54;84.63;100884.59;146616;573;46913;-70
2024/02/27 02:21:19;;;;;;;;;14.00;11.25;;;;;13.49;85.27;100877.41;146622;619;46028;-68
2024/02/27 02:24:18;;;;;;;;;16.25;12.75;;;;;13.43;85.32;100875.47;146618;595;46016;-69
2024/02/27 02:27:28;;;;;;;;;19.75;16.50;;;;;13.36;85.00;100887.34;146622;600;46010;-70
2024/02/27 02:30:26;;;;;;;;;21.25;15.25;;;;;13.32;85.26;100887.13;146616;582;46016;-69
2024/02/27 02:33:47;;;;;;;;;12.00;9.75;;;;;13.27;85.06;100881.75;146622;592;46021;-70
2024/02/27 02:36:51;;;;;;;;;11.00;10.50;;;;;13.20;84.54;100879.62;146620;576;46030;-69
2024/02/27 02:39:58;;;;;;;;;22.25;22.25;;;;;13.16;84.57;100881.22;146625;633;46010;-68
2024/02/27 02:42:54;;;;;;;;;17.75;17.00;;;;;13.17;84.71;100875.19;146613;609;46916;-69
2024/02/27 02:46:01;;;;;;;;;15.75;13.50;;;;;13.21;84.43;100886.66;146618;620;46020;-68
2024/02/27 02:49:15;;;;;;;;;65.50;51.00;;;;;13.21;84.72;100894.47;146611;573;46016;-68
2024/02/27 02:52:25;;;;;;;;;17.75;14.75;;;;;13.14;83.58;100890.66;146615;582;46020;-70
2024/02/27 02:55:21;;;;;;;;;54.75;43.25;;;;;13.08;83.83;100889.53;146615;610;46014;-70
2024/02/27 02:58:19;;;;;;;;;12.75;8.25;;;;;13.04;83.62;100903.22;146616;589;45020;-71
2024/02/27 03:01:27;;;;;;;;;13.50;13.00;;;;;12.92;83.23;100907.06;146618;641;47012;-69
2024/02/27 03:04:09;;;;;;;;;10.75;8.75;;;;;12.80;85.92;100913.44;146711;571;46023;-69
2024/02/27 03:07:09;;;;;;;;;17.75;17.00;;;;;12.75;85.49;100917.56;146621;695;46014;-66
2024/02/27 03:10:16;;;;;;;;;29.00;24.50;;;;;12.65;85.20;100924.06;146616;563;46020;-66
2024/02/27 03:13:14;;;;;;;;;14.50;11.00;;;;;12.54;84.60;100927.88;146610;626;46016;-69
2024/02/27 03:16:18;;;;;;;;;13.00;11.50;;;;;12.50;84.08;100933.75;146613;565;47010;-69
2024/02/27 03:19:30;;;;;;;;;9.75;8.75;;;;;12.37;84.67;100946.16;146611;569;46014;-68
2024/02/27 03:22:27;;;;;;;;;8.75;8.25;;;;;12.23;84.38;100942.91;146625;660;46019;-68
2024/02/27 03:25:25;;;;;;;;;13.75;10.50;;;;;12.14;83.99;100954.56;146614;697;47015;-65
2024/02/27 03:28:25;;;;;;;;;11.25;10.00;;;;;11.94;84.94;100945.81;146615;670;47010;-71
2024/02/27 03:31:23;;;;;;;;;13.50;11.00;;;;;12.01;85.40;100979.06;146613;588;46015;-70
2024/02/27 03:34:33;;;;;;;;;;;;;;;;;;;;;
2024/02/27 03:37:43;;;;;;;;;11.00;10.75;;;;;11.96;85.36;100991.84;146612;670;46012;-71
2024/02/27 03:40:54;;;;;;;;;14.00;13.00;;;;;11.99;85.19;100992.00;146614;601;46020;-69
2024/02/27 03:44:03;;;;;;;;;14.00;12.75;;;;;11.91;86.11;100979.44;146610;645;46016;-69
2024/02/27 03:47:21;;;;;;;;;14.00;12.25;;;;;11.96;86.49;100998.72;146615;598;46030;-69
2024/02/27 03:50:22;;;;;;;;;21.00;18.75;;;;;11.90;86.04;101001.03;146612;563;46016;-69
2024/02/27 03:53:21;;;;;;;;;19.50;17.25;;;;;11.89;86.11;100999.25;146614;570;46012;-68
2024/02/27 03:56:27;;;;;;;;;11.00;8.50;;;;;11.83;85.86;100984.19;146612;575;46017;-69
2024/02/27 03:59:23;;;;;;;;;13.75;13.50;;;;;11.91;85.98;100997.62;146622;569;46010;-69
2024/02/27 04:02:23;;;;;;;;;65.00;51.25;;;;;11.92;86.28;100983.81;146610;589;46017;-68
2024/02/27 04:05:15;;;;;;;;;68.00;56.25;;;;;11.96;85.35;100990.94;146614;652;46010;-69
2024/02/27 04:08:13;;;;;;;;;24.00;22.00;;;;;11.98;85.34;100989.31;146610;566;47016;-68
2024/02/27 04:11:15;;;;;;;;;15.25;13.50;;;;;12.00;85.18;100996.37;146615;669;45021;-74
2024/02/27 04:14:16;;;;;;;;;14.00;12.75;;;;;12.03;84.99;100998.25;146611;615;46016;-71
2024/02/27 04:17:13;;;;;;;;;12.00;12.00;;;;;12.01;85.74;100999.84;146617;572;46010;-71
2024/02/27 04:20:14;;;;;;;;;11.25;10.00;;;;;11.97;84.99;100996.22;146615;576;45916;-71
2024/02/27 04:23:11;;;;;;;;;9.25;8.50;;;;;11.92;85.23;101002.00;146617;570;46012;-72
2024/02/27 04:26:14;;;;;;;;;21.25;19.25;;;;;11.86;85.34;100993.91;146621;597;46033;-72
2024/02/27 04:29:18;;;;;;;;;10.00;8.00;;;;;11.81;85.46;100991.03;146613;591;46020;-72
2024/02/27 04:32:16;;;;;;;;;12.25;11.00;;;;;11.79;85.27;101000.47;146619;655;46016;-71
2024/02/27 04:35:19;;;;;;;;;10.25;9.75;;;;;11.65;85.04;100975.47;146617;673;46010;-73
2024/02/27 04:38:15;;;;;;;;;15.00;10.25;;;;;11.75;84.86;101009.81;146622;714;46016;-74
2024/02/27 04:41:17;;;;;;;;;11.50;8.50;;;;;11.77;84.45;101010.78;146614;564;47010;-73
2024/02/27 04:44:22;;;;;;;;;12.00;9.50;;;;;11.82;84.37;101005.81;146620;631;46012;-72
2024/02/27 04:47:15;;;;;;;;;14.50;13.00;;;;;11.84;84.53;101005.88;146624;587;46020;-71
2024/02/27 04:50:11;;;;;;;;;17.50;14.00;;;;;11.83;84.41;101004.97;146610;668;47012;-71
2024/02/27 04:53:13;;;;;;;;;10.00;10.00;;;;;11.78;84.24;100996.09;146616;629;46010;-70
2024/02/27 04:56:17;;;;;;;;;17.50;16.75;;;;;11.76;83.98;100998.59;146612;578;46026;-68
2024/02/27 04:59:24;;;;;;;;;13.00;12.00;;;;;11.79;83.81;101013.44;146617;654;46010;-68
2024/02/27 05:02:20;;;;;;;;;16.00;14.00;;;;;7.72;85.15;100316.66;146708;569;46014;-70
2024/02/27 05:05:42;;;;;;;;;13.75;10.25;;;;;11.71;84.54;101000.09;146616;625;46019;-69
2024/02/27 05:08:35;;;;;;;;;16.00;12.00;;;;;11.68;84.80;100999.94;146620;631;46010;-69
2024/02/27 05:11:44;;;;;;;;;10.25;10.25;;;;;11.65;83.99;100997.19;146616;570;46917;-67
2024/02/27 05:14:38;;;;;;;;;11.25;10.25;;;;;11.65;84.55;100999.78;146620;601;46033;-70
2024/02/27 05:17:22;;;;;;;;;12.25;10.50;;;;;11.66;87.63;101003.25;146707;565;46022;-68
2024/02/27 05:20:32;;;;;;;;;12.50;9.25;;;;;11.69;85.17;101013.81;146620;582;46030;-68
2024/02/27 05:23:28;;;;;;;;;19.00;18.50;;;;;11.76;85.77;101016.78;146629;564;46012;-69
2024/02/27 05:26:22;;;;;;;;;22.75;20.00;;;;;11.86;85.41;101028.56;146616;587;47012;-69
2024/02/27 05:29:28;;;;;;;;;20.00;18.25;;;;;11.97;85.25;101022.22;146622;613;46020;-69
2024/02/27 05:32:23;;;;;;;;;26.50;19.25;;;;;10.29;84.73;100721.19;146616;689;46016;-69
2024/02/27 05:35:26;;;;;;;;;19.50;18.00;;;;;12.14;84.94;101028.25;146621;607;46020;-67
2024/02/27 05:38:23;;;;;;;;;20.75;19.50;;;;;12.29;85.76;101041.13;146619;638;45016;-67
2024/02/27 05:41:17;;;;;;;;;53.75;42.25;;;;;12.68;87.91;101049.09;146619;604;46021;-68
2024/02/27 05:44:09;;;;;;;;;33.00;30.00;;;;;13.07;85.85;101044.84;146619;613;46012;-68
2024/02/27 05:47:05;;;;;;;;;41.00;32.00;;;;;13.30;83.86;101052.84;146621;596;46021;-66
2024/02/27 05:50:00;;;;;;;;;29.25;26.00;;;;;13.56;82.63;101059.22;146616;603;46016;-68
2024/02/27 05:52:59;;;;;;;;;;;;;;;;;;;;;
2024/02/27 05:55:53;;;;;;;;;12.00;11.00;;;;;13.70;78.69;101062.44;146616;681;46018;-67
2024/02/27 05:58:55;;;;;;;;;12.50;12.25;;;;;13.67;78.30;101075.31;146624;606;46020;-68
2024/02/27 06:01:54;;;;;;;;;13.25;12.25;;;;;13.58;78.10;101081.94;146616;631;47016;-68
2024/02/27 06:04:53;;;;;;;;;20.00;18.75;;;;;13.63;80.82;101076.91;146624;610;46012;-68
2024/02/27 06:07:56;;;;;;;;;34.25;30.25;;;;;14.03;83.37;101086.47;146618;584;46012;-68
2024/02/27 06:10:57;;;;;;;;;21.25;18.75;;;;;14.44;83.57;101098.66;146622;615;46010;-70
2024/02/27 06:13:49;;;;;;;;;12.75;11.50;;;;;13.24;82.87;100832.09;146618;650;47016;-70
2024/02/27 06:16:45;;;;;;;;;21.75;19.75;;;;;15.22;82.23;101117.47;146624;573;46031;-76
2024/02/27 06:19:55;;;;;;;;;32.75;28.75;;;;;15.59;79.03;101121.47;146619;564;46013;-76
2024/02/27 06:23:04;;;;;;;;;25.25;23.50;;;;;15.99;77.42;101128.19;146624;587;45020;-76
2024/02/27 06:25:54;;;;;;;;;32.00;29.75;;;;;16.44;77.15;101130.62;146707;564;46022;-75
2024/02/27 06:28:56;;;;;;;;;45.00;37.75;;;;;16.79;74.77;101137.06;146618;569;46017;-76
2024/02/27 06:31:58;;;;;;;;;34.25;29.25;;;;;17.13;72.67;101142.47;146622;591;46010;-68
2024/02/27 06:35:09;;;;;;;;;25.75;23.25;;;;;17.23;69.93;101106.12;146616;571;46017;-71
2024/02/27 06:38:14;;;;;;;;;28.00;22.00;;;;;17.61;68.47;101129.97;146618;600;47010;-70
2024/02/27 06:41:16;;;;;;;;;24.75;21.00;;;;;17.68;66.46;101136.28;146617;604;47012;-70
2024/02/27 06:44:21;;;;;;;;;38.75;30.75;;;;;17.63;67.15;101133.53;146622;593;46011;-70
2024/02/27 06:47:28;;;;;;;;;44.75;36.25;;;;;17.55;67.98;101127.16;146613;570;47016;-73
2024/02/27 06:50:38;;;;;;;;;29.25;23.50;;;;;15.84;66.15;100881.84;146619;647;46021;-73
2024/02/27 06:53:35;;;;;;;;;36.75;30.75;;;;;17.31;68.20;101140.44;146613;579;46016;-73
2024/02/27 06:56:34;;;;;;;;;23.75;21.00;;;;;15.60;68.05;100858.38;146620;640;46020;-73
2024/02/27 06:59:27;;;;;;;;;25.75;23.75;;;;;17.14;69.89;101136.41;146616;634;47017;-73
2024/02/27 07:02:42;;;;;;;;;26.00;25.00;;;;;17.06;70.27;101126.56;146616;580;47020;-73
2024/02/27 07:05:42;;;;;;;;;30.00;27.00;;;;;17.24;70.23;101144.59;146618;577;46016;-71
2024/02/27 07:08:38;;;;;;;;;29.50;27.00;;;;;17.37;70.33;101150.22;146618;599;46010;-71
2024/02/27 07:11:39;;;;;;;;;31.25;28.75;;;;;17.52;70.68;101151.56;146617;556;46015;-71
2024/02/27 07:14:35;;;;;;;;;26.75;25.00;;;;;17.66;68.70;101158.94;146618;614;47020;-71
2024/02/27 07:17:31;;;;;;;;;23.50;20.00;;;;;17.73;68.83;101160.91;146615;686;46012;-71
2024/02/27 07:20:38;;;;;;;;;27.25;25.00;;;;;17.84;69.01;101170.00;146619;600;46049;-72
2024/02/27 07:23:38;;;;;;;;;28.50;26.25;;;;;17.90;68.99;101185.91;146619;609;46012;-71
2024/02/27 07:26:36;;;;;;;;;28.50;26.00;;;;;17.94;68.49;101187.81;146613;601;46020;-77
2024/02/27 07:29:18;;;;;;;;;28.00;26.50;;;;;17.97;68.41;101202.72;146704;564;46023;-73
2024/02/27 07:32:17;;;;;;;;;24.50;21.50;;;;;18.02;68.68;101195.87;146617;645;46012;-73
2024/02/27 07:35:36;;;;;;;;;26.50;25.00;;;;;18.15;68.72;101205.88;146619;570;47026;-75
2024/02/27 07:38:28;;;;;;;;;26.25;23.00;;;;;18.29;68.49;101206.28;146616;611;47915;-70
2024/02/27 07:41:29;;;;;;;;;25.00;23.25;;;;;18.42;65.79;101207.50;146619;569;46020;-74
2024/02/27 07:44:26;;;;;;;;;24.75;23.25;;;;;18.52;65.37;101206.00;146618;634;46013;-72
2024/02/27 07:47:19;;;;;;;;;20.75;18.00;;;;;18.58;65.33;101199.16;146617;623;46020;-72
2024/02/27 07:50:28;;;;;;;;;20.75;20.00;;;;;18.64;65.45;101201.06;146616;571;46016;-71
2024/02/27 07:53:24;;;;;;;;;20.25;19.75;;;;;18.68;63.95;101192.41;146619;664;46010;-71
2024/02/27 07:56:23;;;;;;;;;16.50;14.75;;;;;18.69;64.54;101195.09;146618;572;46027;-71
2024/02/27 07:59:31;;;;;;;;;;;;;;;;;;;;;
2024/02/27 08:02:29;;;;;;;;;15.25;14.75;;;;;18.87;62.06;101194.66;146613;681;46018;-70
2024/02/27 08:05:30;;;;;;;;;18.50;15.25;;;;;18.81;62.90;101189.25;146620;570;46010;-71
2024/02/27 08:08:23;;;;;;;;;12.75;11.00;;;;;18.79;64.60;101193.63;146616;566;46016;-71
2024/02/27 08:11:24;;;;;;;;;14.75;13.25;;;;;18.78;63.57;101186.56;146617;579;48020;-71
2024/02/27 08:14:19;;;;;;;;;16.25;15.00;;;;;18.89;63.31;101190.34;146611;566;46013;-71
2024/02/27 08:17:26;;;;;;;;;;;;;;;;;;;;;
2024/02/27 08:20:28;;;;;;;;;20.00;18.75;;;;;19.07;63.27;101195.19;146706;564;46012;-75
2024/02/27 08:23:38;;;;;;;;;16.75;16.00;;;;;19.11;63.96;101191.75;146620;633;46014;-73
2024/02/27 08:26:37;;;;;;;;;21.00;18.50;;;;;19.04;63.58;101200.34;146620;618;46021;-73
2024/02/27 08:29:48;;;;;;;;;15.75;13.75;;;;;18.92;66.06;101194.81;146619;572;46016;-74
2024/02/27 08:32:46;;;;;;;;;19.00;17.50;;;;;18.87;65.22;101192.03;146623;594;45021;-71
2024/02/27 08:35:39;;;;;;;;;14.75;13.75;;;;;18.84;66.32;101194.59;146616;573;46016;-73
2024/02/27 08:38:47;;;;;;;;;19.50;18.25;;;;;18.84;67.86;101193.72;146621;637;46030;-71
2024/02/27 08:41:44;;;;;;;;;20.50;17.00;;;;;18.88;66.33;101199.09;146620;622;46012;-73
2024/02/27 08:44:38;;;;;;;;;19.25;17.50;;;;;18.89;67.90;101199.97;146617;628;46020;-74
2024/02/27 08:47:43;;;;;;;;;19.25;17.75;;;;;18.93;65.32;101196.56;146619;588;46016;-74
2024/02/27 08:50:53;;;;;;;;;15.25;13.50;;;;;18.94;64.78;101187.84;146622;608;46010;-71
2024/02/27 08:53:48;;;;;;;;;14.75;14.75;;;;;18.91;63.92;101198.28;146617;686;46012;-73
2024/02/27 08:56:40;;;;;;;;;20.25;14.75;;;;;18.84;63.74;101186.72;146618;571;46020;-72
2024/02/27 08:59:32;;;;;;;;;20.00;17.00;;;;;18.87;67.11;101183.28;146614;581;46016;-72
2024/02/27 09:02:39;;;;;;;;;17.75;16.25;;;;;18.96;67.57;101187.88;146619;590;46029;-71
2024/02/27 09:05:43;;;;;;;;;23.75;23.50;;;;;19.13;68.52;101194.44;146616;569;46915;-72
2024/02/27 09:08:41;;;;;;;;;14.25;13.00;;;;;17.86;65.88;100953.22;146621;563;46020;-68
2024/02/27 09:11:43;;;;;;;;;19.75;14.50;;;;;19.49;65.97;101197.00;146620;563;45017;-75
2024/02/27 09:14:47;;;;;;;;;13.00;12.50;;;;;19.62;62.59;101199.09;146619;649;47010;-69
2024/02/27 09:17:59;;;;;;;;;13.25;12.25;;;;;19.64;60.55;101207.03;146616;713;46914;-69
2024/02/27 09:21:05;;;;;;;;;16.00;13.25;;;;;19.67;62.34;101208.84;146621;609;46010;-72
2024/02/27 09:24:07;;;;;;;;;15.75;13.75;;;;;19.69;62.09;101205.41;146614;676;47038;-72
2024/02/27 09:27:36;;;;;;;;;23.75;19.50;;;;;19.74;61.01;101203.72;146621;592;46010;-71
2024/02/27 09:30:34;;;;;;;;;16.00;15.50;;;;;19.70;60.18;101217.69;146618;666;46016;-71
2024/02/27 09:33:42;;;;;;;;;16.00;14.00;;;;;19.51;61.15;101210.22;146621;565;46021;-72
2024/02/27 09:36:37;;;;;;;;;12.25;10.25;;;;;19.25;59.00;101218.41;146618;599;46016;-72
2024/02/27 09:39:38;;;;;;;;;14.00;11.50;;;;;19.01;61.10;101221.31;146619;696;46021;-72
2024/02/27 09:42:25;;;;;;;;;12.25;12.25;;;;;18.75;60.78;101202.25;146706;556;46022;-72
2024/02/27 09:45:29;;;;;;;;;20.75;12.00;;;;;18.70;62.80;101224.88;146620;569;46014;-73
2024/02/27 09:48:46;;;;;;;;;12.67;11.33;;;;;18.53;63.21;101211.28;146620;649;46021;-73
2024/02/27 09:51:41;;;;;;;;;14.00;14.00;;;;;18.44;62.35;101217.19;146617;574;46014;-70
2024/02/27 09:54:47;;;;;;;;;16.75;15.25;;;;;18.44;64.21;101232.03;146618;698;46020;-72
2024/02/27 09:57:41;;;;;;;;;15.00;11.75;;;;;18.41;62.76;101221.44;146614;625;46030;-71
2024/02/27 10:00:39;;;;;;;;;17.25;14.25;;;;;18.31;62.09;101220.31;146618;690;47012;-70
2024/02/27 10:03:34;;;;;;;;;20.00;17.25;;;;;18.13;62.41;101212.84;146616;575;47012;-70
2024/02/27 10:06:33;;;;;;;;;18.75;17.00;;;;;17.98;63.70;101228.12;146621;563;46020;-70
2024/02/27 10:10:13;;;;;;;;;21.75;17.50;;;;;17.81;63.98;101226.75;146616;629;46017;-71
2024/02/27 10:12:51;;;;;;;;;18.00;16.00;;;;;17.67;65.54;101226.31;146706;576;46023;-70
2024/02/27 10:15:53;;;;;;;;;22.50;18.00;;;;;17.70;66.07;101227.28;146618;591;46016;-70
2024/02/27 10:18:50;;;;;;;;;16.75;13.00;;;;;17.81;66.22;101226.75;146623;629;46020;-72
2024/02/27 10:21:47;;;;;;;;;19.00;16.00;;;;;17.88;64.49;101226.97;146618;601;46913;-72
2024/02/27 10:24:48;;;;;;;;;9.50;9.50;;;;;17.89;63.19;101231.38;146625;622;47019;-71
2024/02/27 10:27:46;;;;;;;;;11.25;10.50;;;;;16.10;64.02;100920.19;146623;577;46017;-72
2024/02/27 10:30:51;;;;;;;;;7.50;7.25;;;;;17.93;64.16;101224.47;146622;614;46020;-72
2024/02/27 10:34:04;;;;;;;;;10.00;8.33;;;;;17.99;63.40;101220.28;146626;661;47037;-69
2024/02/27 10:37:11;;;;;;;;;8.00;7.67;;;;;17.99;63.38;101206.28;146632;582;46020;-72
2024/02/27 10:40:23;;;;;;;;;9.33;6.00;;;;;18.03;62.29;101209.87;146625;551;46012;-71
2024/02/27 10:43:17;;;;;;;;;8.33;7.00;;;;;17.97;61.81;101192.22;146633;576;46020;-72
2024/02/27 10:46:17;;;;;;;;;9.00;8.33;;;;;18.11;61.29;101213.63;146624;569;46016;-71
2024/02/27 10:49:22;;;;;;;;;6.33;6.33;;;;;18.13;61.82;101207.59;146632;637;46010;-71
2024/02/27 10:52:39;;;;;;;;;9.67;8.67;;;;;18.21;62.36;101206.03;146626;585;46017;-71
2024/02/27 10:55:45;;;;;;;;;10.00;7.67;;;;;18.26;60.85;101206.19;146632;656;46020;-71
2024/02/27 10:58:48;;;;;;;;;11.00;11.00;;;;;18.26;61.91;101210.56;146623;603;45917;-72
2024/02/27 11:01:52;;;;;;;;;7.00;7.00;;;;;18.26;61.24;101194.81;146628;624;46010;-70
2024/02/27 11:04:49;;;;;;;;;13.00;9.00;;;;;18.30;61.92;101191.41;146629;572;45016;-70
2024/02/27 11:07:48;;;;;;;;;9.00;9.00;;;;;18.34;62.18;101190.63;146629;655;46020;-71
2024/02/27 11:10:52;;;;;;;;;7.67;7.67;;;;;18.42;62.20;101187.38;146628;617;46912;-71
2024/02/27 11:13:52;;;;;;;;;10.67;8.00;;;;;18.53;62.27;101189.37;146625;593;46020;-71
2024/02/27 11:17:04;;;;;;;;;9.33;7.67;;;;;18.65;60.76;101190.56;146623;618;46012;-73
2024/02/27 11:20:18;;;;;;;;;9.00;7.00;;;;;18.64;60.05;101186.19;146628;654;45021;-74
2024/02/27 11:23:14;;;;;;;;;7.00;7.00;;;;;18.64;58.44;101180.06;146618;577;46016;-76
2024/02/27 11:26:12;;;;;;;;;12.33;8.33;;;;;18.62;59.77;101184.38;146625;602;46010;-71
2024/02/27 11:29:30;;;;;;;;;4.00;4.00;;;;;18.56;61.10;101186.84;146618;590;47012;-75
2024/02/27 11:33:04;;;;;;;;;7.75;6.75;;;;;18.52;62.11;101188.50;146626;565;45020;-70
2024/02/27 11:36:06;;;;;;;;;10.67;10.00;;;;;18.43;61.35;101183.88;146621;579;46017;-70
2024/02/27 11:39:48;;;;;;;;;11.75;11.75;;;;;16.93;62.87;100941.06;146622;563;46020;-74
2024/02/27 11:43:04;;;;;;;;;12.00;10.00;;;;;18.33;62.91;101186.25;146618;649;46017;-74
2024/02/27 11:46:55;;;;;;;;;10.75;9.50;;;;;18.20;63.32;101182.37;146622;693;46022;-74
2024/02/27 11:49:49;;;;;;;;;9.00;8.67;;;;;18.05;62.36;101187.22;146622;595;46013;-73
2024/02/27 11:52:52;;;;;;;;;11.67;11.00;;;;;17.90;62.38;101185.03;146628;619;46010;-72
2024/02/27 11:55:45;;;;;;;;;11.00;10.75;;;;;17.77;62.90;101182.06;146621;569;46014;-73
2024/02/27 11:59:04;;;;;;;;;11.75;9.50;;;;;17.70;64.00;101195.81;146624;742;46020;-72
2024/02/27 12:02:22;;;;;;;;;12.50;11.00;;;;;17.62;64.70;101193.78;146619;585;46016;-74
2024/02/27 12:05:18;;;;;;;;;9.00;9.00;;;;;17.60;65.44;101190.22;146621;590;47021;-73
2024/02/27 12:08:35;;;;;;;;;4.33;1.67;;;;;17.54;65.54;101178.72;146621;617;46016;-73
2024/02/27 12:11:30;;;;;;;;;10.67;9.33;;;;;17.58;65.55;101184.06;146624;582;46020;-72
2024/02/27 12:14:24;;;;;;;;;9.67;9.33;;;;;17.60;64.64;101180.66;146621;566;46915;-72
2024/02/27 12:17:20;;;;;;;;;10.50;8.25;;;;;17.59;64.59;101183.22;146623;580;46020;-73
2024/02/27 12:20:17;;;;;;;;;10.00;7.75;;;;;17.58;65.37;101176.19;146619;579;46017;-79
2024/02/27 12:23:25;;;;;;;;;7.00;7.00;;;;;17.54;64.20;101178.72;146625;577;46010;-71
2024/02/27 12:26:22;;;;;;;;;12.33;11.33;;;;;17.45;65.29;101172.31;146621;581;47013;-68
2024/02/27 12:29:29;;;;;;;;;11.00;10.00;;;;;17.45;66.96;101172.31;146622;684;46010;-73
2024/02/27 12:32:30;;;;;;;;;14.25;10.75;;;;;17.53;65.69;101173.41;146618;678;47014;-71
2024/02/27 12:35:44;;;;;;;;;14.25;11.75;;;;;17.55;65.41;101177.88;146618;575;47021;-72
2024/02/27 12:38:43;;;;;;;;;16.00;13.00;;;;;17.61;63.87;101176.28;146620;612;46012;-72
2024/02/27 12:41:43;;;;;;;;;15.50;15.50;;;;;17.51;64.80;101173.41;146625;571;46010;-72
2024/02/27 12:44:39;;;;;;;;;17.50;15.00;;;;;17.45;65.24;101164.47;146620;616;46012;-70
2024/02/27 12:47:35;;;;;;;;;21.50;14.75;;;;;17.44;65.89;101153.06;146620;564;46010;-70
2024/02/27 12:50:46;;;;;;;;;22.00;21.25;;;;;16.11;66.26;100915.84;146618;575;46017;-72
2024/02/27 12:53:44;;;;;;;;;29.50;22.25;;;;;17.48;66.44;101151.44;146622;605;46034;-74
2024/02/27 12:56:49;;;;;;;;;29.75;25.50;;;;;17.46;66.54;101147.88;146616;588;47014;-73
2024/02/27 12:59:56;;;;;;;;;28.50;25.50;;;;;17.48;66.55;101133.09;146615;627;47010;-71
2024/02/27 13:02:54;;;;;;;;;27.25;22.25;;;;;17.46;66.57;101132.16;146618;593;46013;-70
2024/02/27 13:06:04;;;;;;;;;23.75;22.00;;;;;17.50;67.84;101137.50;146620;582;46021;-69
2024/02/27 13:09:00;;;;;;;;;24.75;21.75;;;;;17.58;67.58;101122.03;146618;572;46014;-72
2024/02/27 13:11:57;;;;;;;;;17.00;14.25;;;;;17.69;67.07;101120.56;146620;585;47010;-73
2024/02/27 13:15:04;;;;;;;;;13.25;11.25;;;;;17.75;66.79;101112.00;146616;642;46014;-71
2024/02/27 13:18:00;;;;;;;;;12.67;11.33;;;;;17.78;66.15;101117.38;146625;596;46010;-71
2024/02/27 13:20:56;;;;;;;;;9.67;9.67;;;;;17.78;66.09;101112.13;146618;586;46016;-72
2024/02/27 13:23:59;;;;;;;;;15.75;12.50;;;;;17.78;66.64;101118.25;146625;684;45020;-72
2024/02/27 13:26:52;;;;;;;;;16.25;13.00;;;;;17.80;66.35;101115.69;146617;595;46017;-70
2024/02/27 13:30:19;;;;;;;;;24.75;21.25;;;;;17.80;66.35;101123.56;146618;669;48020;-71
2024/02/27 13:33:16;;;;;;;;;18.75;14.50;;;;;17.83;65.95;101125.37;146616;608;46017;-72
2024/02/27 13:36:15;;;;;;;;;23.75;20.25;;;;;17.84;66.00;101125.41;146623;594;46012;-71
2024/02/27 13:39:17;;;;;;;;;25.00;22.75;;;;;17.93;65.60;101122.16;146619;608;45016;-73
2024/02/27 13:42:19;;;;;;;;;16.50;14.50;;;;;17.90;64.25;101116.81;146620;656;46020;-72
2024/02/27 13:45:18;;;;;;;;;18.00;16.00;;;;;17.90;64.46;101135.19;146619;569;46016;-72
2024/02/27 13:48:13;;;;;;;;;15.75;12.75;;;;;17.82;64.30;101139.31;146618;615;47012;-70
2024/02/27 13:51:15;;;;;;;;;16.00;12.00;;;;;17.74;64.77;101142.59;146616;610;46016;-72
2024/02/27 13:54:11;;;;;;;;;11.25;11.25;;;;;17.70;65.14;101145.09;146621;596;46020;-71
2024/02/27 13:57:17;;;;;;;;;;;;;;;;;;;;;
2024/02/27 14:00:20;;;;;;;;;10.75;9.50;;;;;17.75;65.02;101146.09;146619;681;46010;-74